Time;durP1;ratioP1;P1;durP2;ratioP2;P2;SDS_P1;SDS_P2;PMS_P1;PMS_P2;Temp;Humidity;BMP_temperature;BMP_pressure;BME280_temperature;BME280_humidity;BME280_pressure;Samples;Min_cycle;Max_cycle;Signal;HPM_P1;HPM_P2
2024/04/05 00:01:39;;;;;;;4.50;2.70;;;10.00;99.90;;;;;;5055453;28;20299;-74
2024/04/05 00:04:08;;;;;;;2.77;2.57;;;10.10;99.90;;;;;;5055343;28;20287;-74
2024/04/05 00:06:34;;;;;;;2.57;2.37;;;10.10;99.90;;;;;;5055241;28;20212;-74
2024/04/05 00:09:03;;;;;;;3.50;2.67;;;9.90;99.90;;;;;;5055320;28;20239;-74
2024/04/05 00:11:30;;;;;;;2.30;2.20;;;9.80;99.90;;;;;;5055272;28;20704;-74
2024/04/05 00:13:57;;;;;;;3.10;2.40;;;9.70;99.90;;;;;;5054889;28;20212;-74
2024/04/05 00:16:23;;;;;;;3.03;2.77;;;9.70;99.90;;;;;;5055108;28;20295;-74
2024/04/05 00:18:50;;;;;;;5.17;3.20;;;9.70;99.90;;;;;;5055416;28;20200;-74
2024/04/05 00:21:16;;;;;;;4.60;2.57;;;9.70;99.90;;;;;;5055917;28;20236;-74
2024/04/05 00:23:44;;;;;;;3.40;2.80;;;9.80;99.90;;;;;;5053913;28;20212;-74
2024/04/05 00:26:10;;;;;;;3.17;2.70;;;9.80;99.90;;;;;;5055269;28;20234;-74
2024/04/05 00:28:38;;;;;;;2.70;2.50;;;9.80;99.90;;;;;;5054721;28;20693;-74
2024/04/05 00:31:04;;;;;;;3.80;2.60;;;9.80;99.90;;;;;;5054656;28;20596;-74
2024/04/05 00:33:32;;;;;;;5.00;2.90;;;9.80;99.90;;;;;;5054774;28;20200;-74
2024/04/05 00:35:58;;;;;;;4.33;3.00;;;9.90;99.90;;;;;;5054618;28;20204;-74
2024/04/05 00:38:26;;;;;;;3.90;2.90;;;10.00;99.90;;;;;;5054393;28;20681;-74
2024/04/05 00:40:54;;;;;;;4.40;3.23;;;10.00;99.90;;;;;;5054512;28;20224;-74
2024/04/05 00:43:22;;;;;;;2.60;2.20;;;10.10;99.90;;;;;;5054137;28;20619;-74
2024/04/05 00:45:51;;;;;;;4.37;2.80;;;10.10;99.90;;;;;;5055821;28;20212;-73
2024/04/05 00:48:19;;;;;;;3.70;2.40;;;10.10;99.90;;;;;;5054417;28;20228;-74
2024/04/05 00:50:47;;;;;;;3.80;2.57;;;10.10;99.90;;;;;;5055517;28;20724;-73
2024/04/05 00:53:19;;;;;;;3.80;3.13;;;10.10;99.90;;;;;;5054086;28;20662;-73
2024/04/05 00:55:46;;;;;;;3.87;2.80;;;10.10;99.90;;;;;;5054517;28;20284;-73
2024/04/05 00:58:14;;;;;;;4.53;2.33;;;10.10;99.90;;;;;;5054184;28;20724;-73
2024/04/05 01:00:40;;;;;;;6.07;2.50;;;10.10;99.90;;;;;;5054230;28;20228;-73
2024/04/05 01:03:08;;;;;;;3.47;2.60;;;10.10;99.90;;;;;;5054030;28;20658;-73
2024/04/05 01:05:38;;;;;;;2.90;2.57;;;10.10;99.90;;;;;;5053865;28;20639;-73
2024/04/05 01:08:08;;;;;;;4.30;2.67;;;10.20;99.90;;;;;;5054092;28;20279;-73
2024/04/05 01:10:35;;;;;;;3.57;2.30;;;10.20;99.90;;;;;;5053753;28;20267;-74
2024/04/05 01:13:03;;;;;;;2.93;2.43;;;10.10;99.90;;;;;;5054492;28;20208;-74
2024/04/05 01:15:30;;;;;;;4.80;2.73;;;10.10;99.90;;;;;;5053866;28;20231;-73
2024/04/05 01:17:59;;;;;;;2.90;2.27;;;10.00;99.90;;;;;;5053646;28;20204;-73
2024/04/05 01:20:29;;;;;;;2.77;2.50;;;10.00;99.90;;;;;;5054536;28;20320;-72
2024/04/05 01:23:01;;;;;;;3.60;2.93;;;10.10;99.90;;;;;;5054108;28;20188;-72
2024/04/05 01:25:29;;;;;;;3.33;2.50;;;10.00;99.90;;;;;;5055776;28;20212;-73
2024/04/05 01:27:56;;;;;;;2.90;2.60;;;10.10;99.90;;;;;;5053864;28;20224;-73
2024/04/05 01:30:22;;;;;;;3.37;2.73;;;10.10;99.90;;;;;;5053733;28;20216;-73
2024/04/05 01:32:52;;;;;;;5.30;3.30;;;10.10;99.90;;;;;;5053940;28;20299;-73
2024/04/05 01:35:18;;;;;;;8.57;7.23;;;10.10;99.90;;;;;;5053086;28;20214;-73
2024/04/05 01:37:45;;;;;;;8.10;6.30;;;10.10;99.90;;;;;;5053593;28;20207;-73
2024/04/05 01:40:11;;;;;;;6.87;5.30;;;10.20;99.90;;;;;;5053443;28;20271;-73
2024/04/05 01:42:39;;;;;;;4.70;4.30;;;10.20;99.90;;;;;;5053422;28;20235;-73
2024/04/05 01:45:06;;;;;;;4.67;3.60;;;10.20;99.90;;;;;;5053091;28;20295;-73
2024/04/05 01:47:33;;;;;;;5.07;4.00;;;10.20;99.90;;;;;;5053237;28;20291;-73
2024/04/05 01:49:59;;;;;;;4.40;3.70;;;10.30;99.90;;;;;;5053632;28;20242;-74
2024/04/05 01:52:26;;;;;;;5.33;3.57;;;10.20;99.90;;;;;;5053181;28;20196;-74
2024/04/05 01:54:52;;;;;;;4.47;3.90;;;10.30;99.90;;;;;;5053266;28;20204;-72
2024/04/05 01:57:19;;;;;;;6.70;3.50;;;10.20;99.90;;;;;;5053293;28;20215;-73
2024/04/05 01:59:51;;;;;;;4.07;2.60;;;10.20;99.90;;;;;;5052816;28;20578;-73
2024/04/05 02:02:18;;;;;;;3.70;3.10;;;10.10;99.90;;;;;;5053101;28;20208;-73
2024/04/05 02:04:44;;;;;;;4.60;2.90;;;10.00;99.90;;;;;;5055140;28;20204;-74
2024/04/05 02:07:11;;;;;;;3.37;2.87;;;10.00;99.90;;;;;;5054675;28;20219;-73
2024/04/05 02:09:37;;;;;;;5.63;3.17;;;10.00;99.90;;;;;;5052960;28;20238;-73
2024/04/05 02:12:07;;;;;;;4.13;3.10;;;10.00;99.90;;;;;;5053069;28;20290;-72
2024/04/05 02:14:33;;;;;;;7.37;3.20;;;10.00;99.90;;;;;;5053102;28;20287;-73
2024/04/05 02:17:02;;;;;;;5.67;3.23;;;10.00;99.90;;;;;;5052959;28;20204;-73
2024/04/05 02:19:27;;;;;;;4.67;2.90;;;9.90;99.90;;;;;;5053589;28;20277;-74
2024/04/05 02:21:54;;;;;;;2.87;2.67;;;10.00;99.90;;;;;;5053209;28;20650;-74
2024/04/05 02:24:20;;;;;;;5.10;3.00;;;10.00;99.90;;;;;;5053133;28;20575;-73
2024/04/05 02:26:47;;;;;;;3.27;2.93;;;10.00;99.90;;;;;;5053078;28;20294;-73
2024/04/05 02:29:13;;;;;;;4.73;2.97;;;10.10;99.90;;;;;;5052493;28;20307;-75
2024/04/05 02:31:40;;;;;;;4.23;3.33;;;10.10;99.90;;;;;;5052971;28;20291;-74
2024/04/05 02:34:07;;;;;;;4.80;3.37;;;10.10;99.90;;;;;;5052911;28;20259;-73
2024/04/05 02:36:34;;;;;;;3.60;3.30;;;10.00;99.90;;;;;;5052827;28;20209;-73
2024/04/05 02:39:00;;;;;;;3.90;3.50;;;10.00;99.90;;;;;;5052721;28;20291;-73
2024/04/05 02:41:27;;;;;;;3.10;2.80;;;10.00;99.90;;;;;;5052801;28;20310;-74
2024/04/05 02:43:53;;;;;;;3.00;2.80;;;10.00;99.90;;;;;;5052844;28;20291;-74
2024/04/05 02:46:20;;;;;;;3.60;2.97;;;10.00;99.90;;;;;;5053592;28;20615;-74
2024/04/05 02:48:45;;;;;;;3.77;3.00;;;10.00;99.90;;;;;;5056666;28;20228;-74
2024/04/05 02:51:14;;;;;;;3.97;3.10;;;10.10;99.90;;;;;;5056227;28;20242;-74
2024/04/05 02:53:40;;;;;;;3.47;2.70;;;10.10;99.90;;;;;;5056679;28;20204;-74
2024/04/05 02:56:07;;;;;;;4.73;3.50;;;10.10;99.90;;;;;;5056117;28;20283;-74
2024/04/05 02:58:33;;;;;;;2.93;2.57;;;10.10;99.90;;;;;;5056737;28;20208;-73
2024/04/05 03:01:00;;;;;;;4.63;2.90;;;10.10;99.90;;;;;;5056214;28;20224;-73
2024/04/05 03:03:26;;;;;;;5.47;2.83;;;10.20;99.90;;;;;;5056935;28;20232;-74
2024/04/05 03:05:53;;;;;;;4.30;2.77;;;10.20;99.90;;;;;;5058591;28;20215;-74
2024/04/05 03:08:20;;;;;;;3.03;2.80;;;10.10;99.90;;;;;;5056822;28;20332;-74
2024/04/05 03:10:47;;;;;;;3.73;3.20;;;10.10;99.90;;;;;;5056128;28;20232;-74
2024/04/05 03:13:13;;;;;;;3.70;3.40;;;10.00;99.90;;;;;;5056138;28;20236;-73
2024/04/05 03:15:40;;;;;;;4.33;3.00;;;10.00;99.90;;;;;;5056041;28;20258;-73
2024/04/05 03:18:06;;;;;;;4.07;3.30;;;10.00;99.90;;;;;;5055746;28;20656;-73
2024/04/05 03:20:33;;;;;;;5.00;3.03;;;10.00;99.90;;;;;;5055654;28;20232;-73
2024/04/05 03:22:59;;;;;;;3.07;2.80;;;10.00;99.90;;;;;;5057508;28;20304;-73
2024/04/05 03:25:27;;;;;;;3.77;3.47;;;10.00;99.90;;;;;;5055790;28;20312;-73
2024/04/05 03:27:53;;;;;;;3.37;3.13;;;10.00;99.90;;;;;;5055832;28;20215;-74
2024/04/05 03:30:20;;;;;;;4.30;3.90;;;10.00;99.90;;;;;;5056175;28;20227;-74
2024/04/05 03:32:46;;;;;;;7.83;3.90;;;10.10;99.90;;;;;;5056065;28;20204;-73
2024/04/05 03:35:14;;;;;;;3.50;2.90;;;10.10;99.90;;;;;;5056103;28;20230;-73
2024/04/05 03:37:41;;;;;;;4.80;4.30;;;10.10;99.90;;;;;;5055914;28;20212;-74
2024/04/05 03:40:09;;;;;;;5.40;5.00;;;10.10;99.90;;;;;;5055560;28;20231;-74
2024/04/05 03:42:37;;;;;;;4.83;4.43;;;10.10;99.90;;;;;;5055640;28;20740;-74
2024/04/05 03:45:04;;;;;;;4.10;3.70;;;10.10;99.90;;;;;;5055391;28;20287;-74
2024/04/05 03:47:30;;;;;;;5.10;3.40;;;10.20;99.90;;;;;;5055232;28;20215;-73
2024/04/05 03:49:56;;;;;;;3.63;3.27;;;10.10;99.90;;;;;;5056561;28;20238;-74
2024/04/05 03:52:23;;;;;;;4.43;3.43;;;10.10;99.90;;;;;;5055116;28;20294;-74
2024/04/05 03:54:49;;;;;;;4.13;3.67;;;10.10;99.90;;;;;;5055292;28;20243;-74
2024/04/05 03:57:16;;;;;;;4.80;3.50;;;10.10;99.90;;;;;;5056178;28;20231;-74
2024/04/05 03:59:45;;;;;;;5.17;3.47;;;10.10;99.90;;;;;;5056311;28;20281;-73
2024/04/05 04:02:12;;;;;;;5.97;3.80;;;10.00;99.90;;;;;;5055398;28;20291;-73
2024/04/05 04:04:39;;;;;;;5.00;3.67;;;10.00;99.90;;;;;;5055394;28;20637;-73
2024/04/05 04:07:06;;;;;;;4.53;3.30;;;10.00;99.90;;;;;;5055228;28;20274;-73
2024/04/05 04:09:32;;;;;;;3.90;3.00;;;10.00;99.90;;;;;;5055082;28;20246;-73
2024/04/05 04:11:59;;;;;;;3.57;3.27;;;10.10;99.90;;;;;;5055796;28;20680;-74
2024/04/05 04:14:25;;;;;;;3.10;2.80;;;10.10;99.90;;;;;;5054541;28;20275;-73
2024/04/05 04:16:53;;;;;;;4.03;3.17;;;10.10;99.90;;;;;;5055503;28;20282;-73
2024/04/05 04:19:19;;;;;;;4.87;3.17;;;10.10;99.90;;;;;;5055848;28;20219;-73
2024/04/05 04:21:46;;;;;;;3.00;2.70;;;10.10;99.90;;;;;;5055002;28;20287;-73
2024/04/05 04:24:12;;;;;;;3.97;2.57;;;10.00;99.90;;;;;;5054702;28;20739;-73
2024/04/05 04:26:41;;;;;;;4.03;2.70;;;10.00;99.90;;;;;;5055620;28;20678;-74
2024/04/05 04:29:07;;;;;;;4.43;2.80;;;10.00;99.90;;;;;;5056414;28;20267;-76
2024/04/05 04:31:34;;;;;;;5.20;2.83;;;10.00;99.90;;;;;;5055824;28;20259;-73
2024/04/05 04:34:03;;;;;;;2.57;2.37;;;9.90;99.90;;;;;;5054361;28;20728;-74
2024/04/05 04:36:30;;;;;;;4.10;2.80;;;9.80;99.90;;;;;;5054288;28;20215;-74
2024/04/05 04:38:56;;;;;;;2.93;2.47;;;9.80;99.90;;;;;;5054288;28;20295;-74
2024/04/05 04:41:22;;;;;;;5.90;3.13;;;9.80;99.90;;;;;;5054170;28;20318;-74
2024/04/05 04:43:48;;;;;;;2.90;2.60;;;9.70;99.90;;;;;;5054426;28;20212;-73
2024/04/05 04:46:15;;;;;;;2.57;2.37;;;9.70;99.90;;;;;;5054219;28;20210;-73
2024/04/05 04:48:41;;;;;;;4.57;3.20;;;9.70;99.90;;;;;;5054296;28;20278;-73
2024/04/05 04:51:10;;;;;;;3.03;2.70;;;9.70;99.90;;;;;;5054064;28;20682;-73
2024/04/05 04:53:36;;;;;;;4.67;2.97;;;9.70;99.90;;;;;;5054336;28;20208;-76
2024/04/05 04:56:03;;;;;;;3.87;3.47;;;9.70;99.90;;;;;;5053960;28;20338;-74
2024/04/05 04:58:29;;;;;;;3.53;2.80;;;9.70;99.90;;;;;;5054304;28;20295;-76
2024/04/05 05:00:57;;;;;;;4.90;3.20;;;9.70;99.90;;;;;;5053736;28;20319;-75
2024/04/05 05:03:23;;;;;;;3.30;2.93;;;9.70;99.90;;;;;;5054245;28;20212;-74
2024/04/05 05:05:50;;;;;;;3.80;3.27;;;9.70;99.90;;;;;;5053838;28;20208;-74
2024/04/05 05:08:17;;;;;;;4.00;2.77;;;9.60;99.90;;;;;;5054431;28;20350;-74
2024/04/05 05:10:45;;;;;;;3.37;2.93;;;9.60;99.90;;;;;;5053107;28;20224;-73
2024/04/05 05:13:11;;;;;;;3.40;3.10;;;9.60;99.90;;;;;;5053920;28;20258;-74
2024/04/05 05:15:41;;;;;;;3.77;2.83;;;9.60;99.90;;;;;;5053826;28;20204;-74
2024/04/05 05:18:07;;;;;;;2.97;2.60;;;9.60;99.90;;;;;;5054000;28;20209;-74
2024/04/05 05:20:34;;;;;;;3.80;2.97;;;9.50;99.90;;;;;;5053758;28;20216;-74
2024/04/05 05:23:00;;;;;;;5.20;3.50;;;9.50;99.90;;;;;;5053812;28;20208;-73
2024/04/05 05:25:29;;;;;;;5.80;3.73;;;9.40;99.90;;;;;;5053557;28;20196;-73
2024/04/05 05:27:55;;;;;;;7.70;3.43;;;9.40;99.90;;;;;;5053796;28;20212;-73
2024/04/05 05:30:21;;;;;;;3.93;3.57;;;9.40;99.90;;;;;;5054014;28;20780;-73
2024/04/05 05:32:48;;;;;;;6.53;3.43;;;9.40;99.90;;;;;;5053419;28;20614;-73
2024/04/05 05:35:15;;;;;;;5.27;3.43;;;9.40;99.90;;;;;;5053457;28;20207;-72
2024/04/05 05:37:41;;;;;;;3.57;3.27;;;9.40;99.90;;;;;;5053778;28;20295;-72
2024/04/05 05:40:08;;;;;;;3.37;3.07;;;9.30;99.90;;;;;;5053772;28;20228;-72
2024/04/05 05:42:36;;;;;;;3.80;3.23;;;9.30;99.90;;;;;;5053713;28;20557;-72
2024/04/05 05:45:03;;;;;;;3.43;3.13;;;9.30;99.90;;;;;;5053486;28;20681;-72
2024/04/05 05:47:28;;;;;;;3.40;2.73;;;9.30;99.90;;;;;;5053439;28;20204;-72
2024/04/05 05:49:55;;;;;;;3.37;3.07;;;9.30;99.90;;;;;;5053189;28;20232;-72
2024/04/05 05:52:21;;;;;;;3.03;2.73;;;9.40;99.90;;;;;;5054135;28;20216;-72
2024/04/05 05:54:48;;;;;;;4.27;3.20;;;9.40;99.90;;;;;;5053250;28;20211;-72
2024/04/05 05:57:15;;;;;;;4.97;3.20;;;9.30;99.90;;;;;;5053301;28;20210;-72
2024/04/05 05:59:43;;;;;;;4.43;3.00;;;9.30;99.90;;;;;;5052982;28;20700;-72
2024/04/05 06:02:09;;;;;;;5.00;3.60;;;9.30;99.90;;;;;;5053049;28;20246;-72
2024/04/05 06:04:36;;;;;;;3.37;2.90;;;9.30;99.90;;;;;;5053062;28;20244;-72
2024/04/05 06:07:01;;;;;;;3.30;3.00;;;9.30;99.90;;;;;;5053355;28;20211;-72
2024/04/05 06:09:29;;;;;;;3.77;3.13;;;9.40;99.90;;;;;;5053190;28;20714;-72
2024/04/05 06:11:57;;;;;;;5.57;4.93;;;9.40;99.90;;;;;;5052998;28;20208;-72
2024/04/05 06:14:25;;;;;;;7.67;6.33;;;9.50;99.90;;;;;;5053334;28;20674;-73
2024/04/05 06:16:53;;;;;;;12.30;11.20;;;9.60;99.90;;;;;;5053690;28;20218;-73
2024/04/05 06:19:20;;;;;;;12.00;11.00;;;9.70;99.90;;;;;;5061070;28;20311;-73
2024/04/05 06:21:46;;;;;;;7.13;5.50;;;9.70;99.90;;;;;;5062176;28;20286;-73
2024/04/05 06:24:13;;;;;;;6.20;3.43;;;9.90;99.90;;;;;;5064631;28;20234;-73
2024/04/05 06:26:42;;;;;;;3.87;3.30;;;10.00;99.90;;;;;;5064871;28;20699;-73
2024/04/05 06:29:09;;;;;;;3.50;3.20;;;10.10;99.90;;;;;;5064887;28;20270;-73
2024/04/05 06:31:35;;;;;;;5.43;3.00;;;10.20;99.90;;;;;;5059154;28;20262;-73
2024/04/05 06:34:04;;;;;;;3.27;2.90;;;10.20;99.90;;;;;;5059041;28;20239;-73
2024/04/05 06:36:30;;;;;;;5.30;4.63;;;10.40;99.90;;;;;;5060045;28;20208;-73
2024/04/05 06:38:58;;;;;;;6.20;4.80;;;10.50;99.90;;;;;;5059015;28;20200;-73
2024/04/05 06:41:26;;;;;;;9.17;6.43;;;10.60;99.90;;;;;;5064985;28;20250;-72
2024/04/05 06:43:53;;;;;;;7.03;5.33;;;10.70;99.90;;;;;;5070761;28;20227;-72
2024/04/05 06:46:19;;;;;;;6.47;5.43;;;10.90;99.90;;;;;;5070041;28;20219;-72
2024/04/05 06:48:46;;;;;;;6.53;5.17;;;11.10;99.90;;;;;;5058284;28;20290;-73
2024/04/05 06:51:16;;;;;;;6.13;4.80;;;11.20;99.90;;;;;;5057671;28;20331;-74
2024/04/05 06:53:43;;;;;;;5.33;4.83;;;11.30;99.90;;;;;;5059092;28;20184;-73
2024/04/05 06:56:10;;;;;;;6.17;4.33;;;11.50;99.90;;;;;;5058085;28;20209;-74
2024/04/05 06:58:37;;;;;;;5.37;4.40;;;11.70;99.90;;;;;;5057679;28;20257;-73
2024/04/05 07:01:04;;;;;;;4.43;3.90;;;11.90;99.90;;;;;;5057904;28;20664;-72
2024/04/05 07:03:31;;;;;;;6.77;3.77;;;12.10;99.90;;;;;;5058599;28;20358;-72
2024/04/05 07:06:00;;;;;;;8.77;3.70;;;12.30;99.90;;;;;;5058896;28;20212;-73
2024/04/05 07:08:29;;;;;;;3.83;3.13;;;12.60;99.90;;;;;;5058161;28;20238;-72
2024/04/05 07:10:55;;;;;;;3.00;2.70;;;12.80;99.90;;;;;;5057922;28;20232;-72
2024/04/05 07:13:22;;;;;;;3.93;2.70;;;13.00;99.90;;;;;;5057748;28;20271;-72
2024/04/05 07:15:48;;;;;;;5.33;2.70;;;13.10;99.90;;;;;;5056519;28;20212;-72
2024/04/05 07:18:15;;;;;;;5.78;2.72;;;13.30;99.90;;;;;;5058552;28;20204;-72
2024/04/05 07:20:41;;;;;;;4.82;2.60;;;13.50;99.90;;;;;;5056563;28;20226;-72
2024/04/05 07:23:07;;;;;;;4.57;2.83;;;13.60;99.90;;;;;;5056411;28;20286;-72
2024/04/05 07:25:35;;;;;;;4.45;2.38;;;13.80;99.90;;;;;;5056047;28;20586;-73
2024/04/05 07:28:03;;;;;;;2.78;2.22;;;13.90;99.90;;;;;;5081329;22;20265;-68
2024/04/05 07:30:29;;;;;;;7.25;3.00;;;14.10;99.90;;;;;;5055406;28;20255;-68
2024/04/05 07:32:56;;;;;;;4.10;2.72;;;14.30;99.90;;;;;;5056494;28;20204;-68
2024/04/05 07:35:22;;;;;;;4.43;2.08;;;14.40;99.90;;;;;;5056133;28;20295;-68
2024/04/05 07:37:49;;;;;;;2.30;2.10;;;14.60;99.90;;;;;;5056037;28;20250;-68
2024/04/05 07:40:19;;;;;;;3.95;2.80;;;14.70;99.90;;;;;;5055917;28;20246;-68
2024/04/05 07:42:50;;;;;;;3.28;2.50;;;14.90;99.90;;;;;;5056262;28;20193;-67
2024/04/05 07:45:16;;;;;;;3.60;2.33;;;15.10;99.90;;;;;;5056532;28;20208;-67
2024/04/05 07:47:43;;;;;;;3.65;2.20;;;15.30;99.90;;;;;;5056054;28;20200;-67
2024/04/05 07:50:09;;;;;;;3.65;2.10;;;15.30;99.90;;;;;;5055791;28;20319;-67
2024/04/05 07:52:36;;;;;;;2.38;2.17;;;15.40;99.90;;;;;;5055916;28;20286;-67
2024/04/05 07:55:03;;;;;;;3.83;2.00;;;15.40;99.90;;;;;;5055794;28;20304;-70
2024/04/05 07:57:30;;;;;;;3.40;1.70;;;15.40;99.90;;;;;;5056528;28;20262;-67
2024/04/05 07:59:57;;;;;;;2.83;1.48;;;15.50;99.90;;;;;;5055589;28;20227;-67
2024/04/05 08:02:28;;;;;;;5.00;1.63;;;15.60;99.90;;;;;;5056563;28;20216;-68
2024/04/05 08:04:55;;;;;;;2.67;1.60;;;15.60;99.90;;;;;;5055228;28;20197;-68
2024/04/05 08:07:23;;;;;;;2.63;1.42;;;15.90;92.10;;;;;;5055628;28;20239;-69
2024/04/05 08:09:51;;;;;;;2.03;1.20;;;16.10;99.90;;;;;;5055129;28;20760;-69
2024/04/05 08:12:18;;;;;;;1.50;1.17;;;16.20;1.00;;;;;;5055359;28;20579;-69
2024/04/05 08:14:44;;;;;;;4.00;1.40;;;16.50;1.00;;;;;;5055303;28;20677;-68
2024/04/05 08:17:12;;;;;;;2.03;1.30;;;16.60;1.00;;;;;;5055220;28;20299;-68
2024/04/05 08:19:38;;;;;;;1.83;1.05;;;16.70;99.90;;;;;;5055175;28;20599;-70
2024/04/05 08:22:06;;;;;;;2.50;1.40;;;16.70;99.90;;;;;;5055354;28;20724;-69
2024/04/05 08:24:33;;;;;;;3.50;1.08;;;16.90;1.00;;;;;;5055073;28;20605;-68
2024/04/05 08:27:00;;;;;;;2.65;1.40;;;16.80;1.00;;;;;;5055441;28;20270;-71
2024/04/05 08:29:27;;;;;;;2.22;1.38;;;17.10;99.90;;;;;;5055135;28;20319;-71
2024/04/05 08:31:55;;;;;;;3.20;1.35;;;17.30;1.00;;;;;;5055053;28;20204;-69
2024/04/05 08:34:22;;;;;;;4.15;1.30;;;17.30;1.00;;;;;;5054819;28;20210;-69
2024/04/05 08:36:49;;;;;;;1.85;0.95;;;17.30;1.00;;;;;;5054740;28;20212;-69
2024/04/05 08:39:17;;;;;;;2.72;1.17;;;17.40;46.50;;;;;;5054686;28;20229;-71
2024/04/05 08:41:47;;;;;;;2.58;1.13;;;17.50;24.40;;;;;;5054838;28;20677;-72
2024/04/05 08:44:13;;;;;;;1.40;1.00;;;17.60;97.80;;;;;;5054374;28;20304;-72
2024/04/05 08:46:41;;;;;;;1.20;1.10;;;17.70;99.90;;;;;;5054656;28;20215;-68
2024/04/05 08:49:07;;;;;;;1.52;1.08;;;18.00;1.00;;;;;;5055004;28;20255;-67
2024/04/05 08:51:36;;;;;;;1.85;1.00;;;18.20;99.90;;;;;;5054857;28;20204;-68
2024/04/05 08:54:02;;;;;;;2.13;1.05;;;18.30;1.00;;;;;;5054453;28;20736;-69
2024/04/05 08:56:30;;;;;;;1.23;1.10;;;18.50;1.00;;;;;;5054701;28;20208;-71
2024/04/05 08:58:59;;;;;;;2.47;1.30;;;18.60;99.90;;;;;;5054616;28;20314;-71
2024/04/05 09:01:27;;;;;;;2.58;1.10;;;18.40;1.00;;;;;;5054438;28;20735;-68
2024/04/05 09:03:53;;;;;;;3.15;1.10;;;18.30;1.00;;;;;;5054422;28;20628;-69
2024/04/05 09:06:20;;;;;;;1.35;0.93;;;18.30;99.90;;;;;;5054127;28;20212;-70
2024/04/05 09:08:49;;;;;;;3.50;1.35;;;18.50;99.90;;;;;;5054201;28;20231;-70
2024/04/05 09:11:22;;;;;;;1.85;1.08;;;18.70;1.00;;;;;;5054509;28;20235;-71
2024/04/05 09:13:55;;;;;;;2.58;1.10;;;18.90;1.00;;;;;;5054528;28;20542;-68
2024/04/05 09:16:24;;;;;;;2.50;1.13;;;19.20;1.00;;;;;;5054079;28;20272;-69
2024/04/05 09:18:50;;;;;;;3.47;1.45;;;19.40;1.00;;;;;;5054025;28;20231;-70
2024/04/05 09:21:18;;;;;;;3.90;1.00;;;19.50;99.90;;;;;;5053847;28;20284;-70
2024/04/05 09:23:45;;;;;;;4.10;1.10;;;19.70;99.90;;;;;;5053579;28;20208;-71
2024/04/05 09:26:21;;;;;;;2.10;0.90;;;19.90;1.00;;;;;;5053430;28;20208;-71
2024/04/05 09:28:58;;;;;;;1.27;0.80;;;20.10;99.90;;;;;;5053211;28;20243;-69
2024/04/05 09:31:25;;;;;;;1.75;0.70;;;20.30;1.00;;;;;;5054653;28;20250;-69
2024/04/05 09:33:51;;;;;;;3.08;1.40;;;20.40;1.00;;;;;;5053880;28;20208;-67
2024/04/05 09:39:55;;;;;;;2.85;1.00;;;20.60;1.00;;;;;;5053839;28;20247;-71
2024/04/05 09:42:24;;;;;;;2.97;1.08;;;20.70;1.00;;;;;;5053243;28;20216;-70
2024/04/05 09:44:55;;;;;;;2.05;1.00;;;20.70;99.90;;;;;;5053309;28;20223;-70
2024/04/05 09:47:22;;;;;;;1.17;1.08;;;20.80;1.00;;;;;;5053537;28;20228;-70
2024/04/05 09:49:49;;;;;;;2.83;0.82;;;21.20;1.00;;;;;;5053458;28;20310;-70
2024/04/05 09:52:24;;;;;;;0.80;0.80;;;21.30;1.00;;;;;;5053554;28;20218;-70
2024/04/05 09:54:56;;;;;;;1.88;0.73;;;21.50;31.50;;;;;;5053381;28;20279;-68
2024/04/05 09:57:23;;;;;;;4.05;1.20;;;21.30;1.00;;;;;;5053669;28;20263;-68
2024/04/05 09:59:53;;;;;;;1.73;1.20;;;21.50;1.00;;;;;;5053475;28;20311;-68
2024/04/05 10:02:20;;;;;;;4.03;1.27;;;21.80;99.90;;;;;;5053966;28;20208;-69
2024/04/05 10:04:48;;;;;;;1.95;0.77;;;22.10;1.00;;;;;;5053760;28;20234;-69
2024/04/05 10:07:14;;;;;;;1.77;0.82;;;22.30;31.00;;;;;;5053391;28;20228;-70
2024/04/05 10:09:41;;;;;;;1.13;0.80;;;22.50;1.00;;;;;;5053217;28;20231;-69
2024/04/05 10:12:12;;;;;;;1.92;1.00;;;22.40;1.00;;;;;;5053008;28;20216;-69
2024/04/05 10:14:40;;;;;;;0.90;0.90;;;22.20;50.70;;;;;;5053341;28;20204;-69
2024/04/05 10:17:07;;;;;;;4.13;0.90;;;22.20;88.10;;;;;;5052949;28;20285;-69
2024/04/05 10:19:37;;;;;;;1.80;0.90;;;22.30;94.40;;;;;;5053513;28;20228;-68
2024/04/05 10:22:04;;;;;;;1.25;0.85;;;22.50;99.90;;;;;;5053067;28;20665;-68
2024/04/05 10:24:31;;;;;;;1.98;1.05;;;22.90;99.90;;;;;;5053147;28;20273;-69
2024/04/05 10:26:58;;;;;;;3.50;1.02;;;23.30;99.90;;;;;;5053015;28;20230;-69
2024/04/05 10:29:26;;;;;;;1.27;0.70;;;23.10;99.90;;;;;;5052905;28;20669;-69
2024/04/05 10:32:01;;;;;;;1.17;0.90;;;23.50;99.90;;;;;;5053144;28;20212;-69
2024/04/05 10:34:30;;;;;;;1.42;0.82;;;23.80;99.90;;;;;;5053123;28;20203;-69
2024/04/05 10:36:56;;;;;;;1.63;1.02;;;23.70;99.90;;;;;;5052922;28;20301;-69
2024/04/05 10:39:23;;;;;;;2.22;0.75;;;23.50;99.90;;;;;;5052995;28;20653;-69
2024/04/05 10:41:50;;;;;;;2.30;0.93;;;23.20;99.90;;;;;;5052541;28;20601;-69
2024/04/05 10:44:18;;;;;;;2.38;1.13;;;23.30;99.90;;;;;;5052601;28;20214;-69
2024/04/05 10:46:47;;;;;;;1.15;0.80;;;23.00;99.90;;;;;;5052595;28;20234;-69
2024/04/05 10:49:17;;;;;;;1.23;0.88;;;22.80;99.90;;;;;;5053341;28;20254;-69
2024/04/05 10:51:46;;;;;;;0.90;0.70;;;22.70;99.90;;;;;;5052815;28;20212;-69
2024/04/05 10:54:14;;;;;;;1.02;0.82;;;22.90;99.90;;;;;;5052828;28;20607;-69
2024/04/05 10:56:42;;;;;;;0.93;0.80;;;23.10;99.90;;;;;;5052790;28;20235;-69
2024/04/05 10:59:09;;;;;;;1.10;0.80;;;23.20;99.90;;;;;;5052946;28;20200;-69
2024/04/05 11:01:37;;;;;;;1.27;0.63;;;23.30;99.90;;;;;;5053015;28;20204;-69
2024/04/05 11:04:04;;;;;;;0.80;0.80;;;23.60;99.90;;;;;;5052961;28;20204;-69
2024/04/05 11:06:32;;;;;;;3.13;0.98;;;23.40;99.90;;;;;;5052730;28;20661;-69
2024/04/05 11:08:59;;;;;;;1.85;0.80;;;23.60;99.90;;;;;;5055947;28;20235;-69
2024/04/05 11:11:26;;;;;;;2.08;0.88;;;24.40;99.90;;;;;;5056094;28;20692;-69
2024/04/05 11:14:02;;;;;;;3.10;0.77;;;24.90;99.90;;;;;;5056589;28;20210;-69
2024/04/05 11:16:28;;;;;;;2.35;0.73;;;25.10;99.10;;;;;;5056367;28;20232;-69
2024/04/05 11:18:55;;;;;;;1.17;0.90;;;25.00;97.40;;;;;;5056221;28;20204;-69
2024/04/05 11:21:21;;;;;;;1.35;0.98;;;24.50;97.40;;;;;;5057013;28;20228;-69
2024/04/05 11:23:51;;;;;;;1.85;0.82;;;24.60;97.20;;;;;;5057453;28;20692;-69
2024/04/05 11:26:21;;;;;;;1.48;0.93;;;24.60;98.70;;;;;;5055746;28;20657;-69
2024/04/05 11:28:48;;;;;;;0.50;0.50;;;25.10;97.70;;;;;;5055753;28;20620;-70
2024/04/05 11:31:14;;;;;;;2.20;0.90;;;25.40;97.30;;;;;;5055592;28;20726;-70
2024/04/05 11:33:41;;;;;;;1.55;0.55;;;25.40;96.20;;;;;;5055918;28;20204;-70
2024/04/05 11:36:08;;;;;;;1.98;0.70;;;25.10;95.60;;;;;;5055593;28;20611;-69
2024/04/05 11:38:35;;;;;;;0.93;0.50;;;24.50;95.90;;;;;;5055813;28;20208;-70
2024/04/05 11:41:03;;;;;;;0.85;0.73;;;25.00;96.00;;;;;;5056263;28;20361;-75
2024/04/05 11:43:30;;;;;;;2.65;0.82;;;24.90;95.00;;;;;;5056070;28;20265;-73
2024/04/05 11:45:56;;;;;;;2.50;0.80;;;24.80;95.50;;;;;;5055638;28;20239;-72
2024/04/05 11:48:23;;;;;;;2.55;0.77;;;24.20;95.60;;;;;;5055283;28;20289;-71
2024/04/05 11:50:50;;;;;;;1.98;0.82;;;23.80;95.40;;;;;;5055262;28;20228;-73
2024/04/05 11:53:16;;;;;;;1.55;0.88;;;23.40;95.00;;;;;;5055580;28;20581;-73
2024/04/05 11:55:42;;;;;;;1.13;0.70;;;23.10;94.60;;;;;;5055550;28;20311;-72
2024/04/05 11:58:11;;;;;;;0.63;0.63;;;22.90;95.00;;;;;;5055413;28;20294;-72
2024/04/05 12:00:37;;;;;;;1.45;0.88;;;22.80;96.70;;;;;;5055327;28;20208;-72
2024/04/05 12:03:04;;;;;;;0.77;0.50;;;22.90;96.80;;;;;;5055413;28;20208;-72
2024/04/05 12:05:30;;;;;;;1.40;0.63;;;23.00;96.60;;;;;;5055368;28;20299;-72
2024/04/05 12:07:57;;;;;;;3.60;0.80;;;22.70;96.00;;;;;;5055792;28;20319;-72
2024/04/05 12:10:22;;;;;;;1.95;0.93;;;22.60;96.90;;;;;;5055747;28;20323;-70
2024/04/05 12:12:50;;;;;;;0.60;0.60;;;22.50;95.20;;;;;;5055221;28;20286;-70
2024/04/05 12:15:17;;;;;;;1.48;0.60;;;22.30;96.70;;;;;;5054796;28;20223;-70
2024/04/05 12:17:47;;;;;;;1.05;0.60;;;22.10;94.80;;;;;;5055155;28;20675;-70
2024/04/05 12:20:13;;;;;;;1.35;0.65;;;22.00;96.40;;;;;;5054181;28;20299;-70
2024/04/05 12:22:40;;;;;;;0.60;0.60;;;21.90;95.70;;;;;;5055103;28;20250;-70
2024/04/05 12:25:07;;;;;;;2.40;0.95;;;21.80;96.00;;;;;;5054901;28;20619;-69
2024/04/05 12:27:34;;;;;;;1.67;0.70;;;21.80;96.50;;;;;;5054941;28;20255;-70
2024/04/05 12:30:00;;;;;;;2.78;0.70;;;21.80;96.00;;;;;;5054707;28;20250;-70
2024/04/05 12:32:28;;;;;;;1.38;0.90;;;21.70;96.30;;;;;;5055118;28;20577;-70
2024/04/05 12:34:54;;;;;;;0.90;0.55;;;21.60;96.50;;;;;;5054754;28;20216;-69
2024/04/05 12:37:22;;;;;;;1.17;0.50;;;21.50;96.80;;;;;;5054711;28;20232;-69
2024/04/05 12:39:48;;;;;;;0.90;0.82;;;21.60;96.70;;;;;;5054602;28;20205;-70
2024/04/05 12:42:16;;;;;;;0.88;0.70;;;21.50;97.20;;;;;;5054380;28;20212;-70
2024/04/05 12:44:48;;;;;;;1.60;1.08;;;21.50;97.10;;;;;;5054637;28;20219;-70
2024/04/05 12:47:15;;;;;;;1.25;0.60;;;21.60;97.10;;;;;;5055136;28;20624;-70
2024/04/05 12:49:42;;;;;;;1.08;0.88;;;21.70;97.30;;;;;;5054611;28;20291;-71
2024/04/05 12:52:10;;;;;;;1.25;0.70;;;21.70;96.50;;;;;;5053969;28;20281;-70
2024/04/05 12:54:36;;;;;;;1.13;0.63;;;21.60;97.50;;;;;;5054218;28;20204;-70